sensor_id;sensor_type;location;lat;lon;timestamp;pressure;altitude;pressure_sealevel;temperature;humidity
84147;BME280;74267;50.434;7.398;2024-03-02T00:00:07;99526.34;;;7.04;79.68
84147;BME280;74267;50.434;7.398;2024-03-02T00:02:42;99524.28;;;7.13;79.39
84147;BME280;74267;50.434;7.398;2024-03-02T00:05:16;99527.09;;;7.11;79.21
84147;BME280;74267;50.434;7.398;2024-03-02T00:07:42;99524.28;;;7.13;79.54
84147;BME280;74267;50.434;7.398;2024-03-02T00:10:09;99526.69;;;7.14;79.08
84147;BME280;74267;50.434;7.398;2024-03-02T00:12:37;99522.25;;;7.15;78.73
84147;BME280;74267;50.434;7.398;2024-03-02T00:17:42;99518.97;;;7.26;79.70
84147;BME280;74267;50.434;7.398;2024-03-02T00:20:09;99514.50;;;7.33;79.64
84147;BME280;74267;50.434;7.398;2024-03-02T00:22:35;99514.09;;;7.29;78.92
84147;BME280;74267;50.434;7.398;2024-03-02T00:25:03;99521.34;;;7.34;79.05
84147;BME280;74267;50.434;7.398;2024-03-02T00:27:28;99512.50;;;7.35;79.85
84147;BME280;74267;50.434;7.398;2024-03-02T00:29:54;99508.63;;;7.37;79.84
84147;BME280;74267;50.434;7.398;2024-03-02T00:32:22;99506.84;;;7.31;79.62
84147;BME280;74267;50.434;7.398;2024-03-02T00:34:47;99503.63;;;7.29;79.69
84147;BME280;74267;50.434;7.398;2024-03-02T00:37:13;99508.88;;;7.29;79.22
84147;BME280;74267;50.434;7.398;2024-03-02T00:39:39;99506.84;;;7.31;78.26
84147;BME280;74267;50.434;7.398;2024-03-02T00:42:05;99503.97;;;7.39;78.82
84147;BME280;74267;50.434;7.398;2024-03-02T00:44:33;99491.06;;;7.44;77.83
84147;BME280;74267;50.434;7.398;2024-03-02T00:47:00;99492.25;;;7.48;77.33
84147;BME280;74267;50.434;7.398;2024-03-02T00:49:26;99479.91;;;7.55;76.74
84147;BME280;74267;50.434;7.398;2024-03-02T00:51:53;99478.03;;;7.63;76.74
84147;BME280;74267;50.434;7.398;2024-03-02T00:54:21;99480.84;;;7.68;76.95
84147;BME280;74267;50.434;7.398;2024-03-02T00:56:47;99481.44;;;7.70;76.96
84147;BME280;74267;50.434;7.398;2024-03-02T00:59:13;99474.75;;;7.74;76.79
84147;BME280;74267;50.434;7.398;2024-03-02T01:01:38;99474.75;;;7.74;75.96
84147;BME280;74267;50.434;7.398;2024-03-02T01:04:04;99469.13;;;7.70;76.53
84147;BME280;74267;50.434;7.398;2024-03-02T01:06:30;99467.75;;;7.68;76.17
84147;BME280;74267;50.434;7.398;2024-03-02T01:08:55;99465.13;;;7.68;76.11
84147;BME280;74267;50.434;7.398;2024-03-02T01:11:21;99472.03;;;7.62;76.84
84147;BME280;74267;50.434;7.398;2024-03-02T01:13:50;99467.97;;;7.59;76.52
84147;BME280;74267;50.434;7.398;2024-03-02T01:16:15;99476.09;;;7.58;76.86
84147;BME280;74267;50.434;7.398;2024-03-02T01:18:41;99474.84;;;7.61;77.18
84147;BME280;74267;50.434;7.398;2024-03-02T01:21:06;99473.22;;;7.59;76.94
84147;BME280;74267;50.434;7.398;2024-03-02T01:23:32;99464.47;;;7.47;77.22
84147;BME280;74267;50.434;7.398;2024-03-02T01:25:57;99472.53;;;7.46;77.65
84147;BME280;74267;50.434;7.398;2024-03-02T01:28:23;99470.53;;;7.41;77.00
84147;BME280;74267;50.434;7.398;2024-03-02T01:30:48;99471.81;;;7.32;77.19
84147;BME280;74267;50.434;7.398;2024-03-02T01:33:15;99479.66;;;7.32;77.42
84147;BME280;74267;50.434;7.398;2024-03-02T01:35:41;99469.78;;;7.34;77.49
84147;BME280;74267;50.434;7.398;2024-03-02T01:38:07;99471.44;;;7.29;77.90
84147;BME280;74267;50.434;7.398;2024-03-02T01:40:34;99473.88;;;7.24;77.40
84147;BME280;74267;50.434;7.398;2024-03-02T01:42:59;99470.63;;;7.28;77.95
84147;BME280;74267;50.434;7.398;2024-03-02T01:45:24;99467.09;;;7.16;78.36
84147;BME280;74267;50.434;7.398;2024-03-02T01:47:50;99469.72;;;7.10;78.39
84147;BME280;74267;50.434;7.398;2024-03-02T01:50:16;99467.94;;;7.10;78.81
84147;BME280;74267;50.434;7.398;2024-03-02T01:52:42;99467.53;;;7.07;78.13
84147;BME280;74267;50.434;7.398;2024-03-02T01:55:09;99465.19;;;6.92;79.49
84147;BME280;74267;50.434;7.398;2024-03-02T01:57:34;99462.81;;;6.84;78.62
84147;BME280;74267;50.434;7.398;2024-03-02T02:00:00;99453.53;;;6.88;79.52
84147;BME280;74267;50.434;7.398;2024-03-02T02:02:26;99459.38;;;6.90;78.64
84147;BME280;74267;50.434;7.398;2024-03-02T02:04:51;99466.03;;;6.86;79.45
84147;BME280;74267;50.434;7.398;2024-03-02T02:07:17;99455.59;;;6.86;79.08
84147;BME280;74267;50.434;7.398;2024-03-02T02:09:42;99469.25;;;6.88;78.62
84147;BME280;74267;50.434;7.398;2024-03-02T02:12:09;99466.50;;;6.70;79.93
84147;BME280;74267;50.434;7.398;2024-03-02T02:14:35;99458.06;;;6.68;80.13
84147;BME280;74267;50.434;7.398;2024-03-02T02:17:00;99453.25;;;6.65;79.52
84147;BME280;74267;50.434;7.398;2024-03-02T02:19:26;99448.00;;;6.65;79.76
84147;BME280;74267;50.434;7.398;2024-03-02T02:21:51;99453.66;;;6.62;79.59
84147;BME280;74267;50.434;7.398;2024-03-02T02:24:16;99452.47;;;6.65;79.20
84147;BME280;74267;50.434;7.398;2024-03-02T02:26:41;99444.66;;;6.45;79.52
84147;BME280;74267;50.434;7.398;2024-03-02T02:29:07;99442.47;;;6.42;79.65
84147;BME280;74267;50.434;7.398;2024-03-02T02:31:39;99441.22;;;6.51;80.06
84147;BME280;74267;50.434;7.398;2024-03-02T02:34:05;99439.63;;;6.50;80.05
84147;BME280;74267;50.434;7.398;2024-03-02T02:36:31;99440.41;;;6.57;79.29
84147;BME280;74267;50.434;7.398;2024-03-02T02:38:57;99430.78;;;6.51;79.74
84147;BME280;74267;50.434;7.398;2024-03-02T02:41:24;99439.66;;;6.44;80.08
84147;BME280;74267;50.434;7.398;2024-03-02T02:43:50;99430.22;;;6.36;80.44
84147;BME280;74267;50.434;7.398;2024-03-02T02:46:15;99433.25;;;6.33;79.79
84147;BME280;74267;50.434;7.398;2024-03-02T02:48:40;99426.41;;;6.39;79.65
84147;BME280;74267;50.434;7.398;2024-03-02T02:51:05;99416.69;;;6.52;78.95
84147;BME280;74267;50.434;7.398;2024-03-02T02:53:31;99411.47;;;6.52;78.77
84147;BME280;74267;50.434;7.398;2024-03-02T02:55:56;99411.41;;;6.65;78.78
84147;BME280;74267;50.434;7.398;2024-03-02T02:58:21;99410.41;;;6.60;79.48
84147;BME280;74267;50.434;7.398;2024-03-02T03:00:47;99424.31;;;6.60;78.76
84147;BME280;74267;50.434;7.398;2024-03-02T03:03:12;99412.22;;;6.59;78.55
84147;BME280;74267;50.434;7.398;2024-03-02T03:05:37;99418.66;;;6.63;78.80
84147;BME280;74267;50.434;7.398;2024-03-02T03:08:03;99411.41;;;6.65;78.68
84147;BME280;74267;50.434;7.398;2024-03-02T03:10:28;99419.50;;;6.57;79.20
84147;BME280;74267;50.434;7.398;2024-03-02T03:12:53;99418.88;;;6.55;79.50
84147;BME280;74267;50.434;7.398;2024-03-02T03:15:21;99421.94;;;6.46;79.61
84147;BME280;74267;50.434;7.398;2024-03-02T03:17:46;99414.34;;;6.31;80.49
84147;BME280;74267;50.434;7.398;2024-03-02T03:20:12;99426.63;;;6.31;79.87
84147;BME280;74267;50.434;7.398;2024-03-02T03:22:38;99426.44;;;6.19;80.97
84147;BME280;74267;50.434;7.398;2024-03-02T03:25:04;99430.69;;;6.20;80.74
84147;BME280;74267;50.434;7.398;2024-03-02T03:27:29;99434.50;;;6.24;80.70
84147;BME280;74267;50.434;7.398;2024-03-02T03:29:55;99436.13;;;6.12;80.82
84147;BME280;74267;50.434;7.398;2024-03-02T03:32:20;99435.75;;;6.09;80.89
84147;BME280;74267;50.434;7.398;2024-03-02T03:34:45;99437.94;;;6.05;81.60
84147;BME280;74267;50.434;7.398;2024-03-02T03:37:13;99435.16;;;6.00;80.66
84147;BME280;74267;50.434;7.398;2024-03-02T03:39:38;99431.94;;;5.92;81.83
84147;BME280;74267;50.434;7.398;2024-03-02T03:42:03;99439.59;;;5.93;81.96
84147;BME280;74267;50.434;7.398;2024-03-02T03:44:29;99440.97;;;5.89;82.04
84147;BME280;74267;50.434;7.398;2024-03-02T03:46:54;99425.31;;;5.83;82.53
84147;BME280;74267;50.434;7.398;2024-03-02T03:49:20;99437.75;;;5.81;82.57
84147;BME280;74267;50.434;7.398;2024-03-02T03:51:45;99429.91;;;5.68;82.87
84147;BME280;74267;50.434;7.398;2024-03-02T03:54:11;99438.78;;;5.73;82.55
84147;BME280;74267;50.434;7.398;2024-03-02T03:56:37;99432.13;;;5.77;82.61
84147;BME280;74267;50.434;7.398;2024-03-02T03:59:02;99436.13;;;5.80;82.76
84147;BME280;74267;50.434;7.398;2024-03-02T04:01:28;99440.19;;;5.82;83.54
84147;BME280;74267;50.434;7.398;2024-03-02T04:03:53;99439.78;;;5.85;83.06
84147;BME280;74267;50.434;7.398;2024-03-02T04:06:18;99443.78;;;5.94;83.19
84147;BME280;74267;50.434;7.398;2024-03-02T04:08:44;99440.16;;;5.95;83.47
84147;BME280;74267;50.434;7.398;2024-03-02T04:11:09;99447.81;;;5.97;82.52
84147;BME280;74267;50.434;7.398;2024-03-02T04:13:34;99440.16;;;5.95;83.43
84147;BME280;74267;50.434;7.398;2024-03-02T04:16:00;99438.16;;;5.97;82.97
84147;BME280;74267;50.434;7.398;2024-03-02T04:18:25;99431.75;;;5.93;82.35
84147;BME280;74267;50.434;7.398;2024-03-02T04:20:50;99426.53;;;5.93;83.01
84147;BME280;74267;50.434;7.398;2024-03-02T04:23:16;99432.16;;;5.90;82.81
84147;BME280;74267;50.434;7.398;2024-03-02T04:25:41;99432.97;;;5.84;83.88
84147;BME280;74267;50.434;7.398;2024-03-02T04:28:06;99434.97;;;5.89;82.89
84147;BME280;74267;50.434;7.398;2024-03-02T04:30:32;99445.41;;;5.95;82.54
84147;BME280;74267;50.434;7.398;2024-03-02T04:32:57;99436.13;;;5.99;82.72
84147;BME280;74267;50.434;7.398;2024-03-02T04:35:23;99434.56;;;5.92;83.36
84147;BME280;74267;50.434;7.398;2024-03-02T04:37:48;99441.78;;;5.90;82.30
84147;BME280;74267;50.434;7.398;2024-03-02T04:40:13;99444.22;;;5.85;82.56
84147;BME280;74267;50.434;7.398;2024-03-02T04:42:39;99444.63;;;5.82;83.58
84147;BME280;74267;50.434;7.398;2024-03-02T04:45:04;99454.63;;;5.78;83.36
84147;BME280;74267;50.434;7.398;2024-03-02T04:47:29;99459.84;;;5.78;82.82
84147;BME280;74267;50.434;7.398;2024-03-02T04:49:55;99459.44;;;5.75;83.63
84147;BME280;74267;50.434;7.398;2024-03-02T04:52:20;99474.09;;;5.69;83.87
84147;BME280;74267;50.434;7.398;2024-03-02T04:54:45;99482.75;;;5.63;82.95
84147;BME280;74267;50.434;7.398;2024-03-02T04:57:29;99477.94;;;5.60;84.46
84147;BME280;74267;50.434;7.398;2024-03-02T04:59:54;99478.91;;;5.59;83.53
84147;BME280;74267;50.434;7.398;2024-03-02T05:02:20;99484.34;;;5.71;83.24
84147;BME280;74267;50.434;7.398;2024-03-02T05:04:45;99487.97;;;5.70;83.38
84147;BME280;74267;50.434;7.398;2024-03-02T05:07:10;99489.97;;;5.68;83.56
84147;BME280;74267;50.434;7.398;2024-03-02T05:09:36;99486.97;;;5.64;83.33
84147;BME280;74267;50.434;7.398;2024-03-02T05:12:01;99488.97;;;5.62;83.55
84147;BME280;74267;50.434;7.398;2024-03-02T05:14:29;99497.59;;;5.69;83.52
84147;BME280;74267;50.434;7.398;2024-03-02T05:16:55;99490.78;;;5.68;83.44
84147;BME280;74267;50.434;7.398;2024-03-02T05:19:20;99493.78;;;5.65;84.08
84147;BME280;74267;50.434;7.398;2024-03-02T05:21:45;99494.41;;;5.67;84.06
84147;BME280;74267;50.434;7.398;2024-03-02T05:24:11;99498.00;;;5.66;83.54
84147;BME280;74267;50.434;7.398;2024-03-02T05:26:36;99498.59;;;5.68;83.91
84147;BME280;74267;50.434;7.398;2024-03-02T05:29:01;99491.97;;;5.72;84.02
84147;BME280;74267;50.434;7.398;2024-03-02T05:31:28;99490.56;;;5.70;84.77
84147;BME280;74267;50.434;7.398;2024-03-02T05:33:53;99490.56;;;5.76;84.34
84147;BME280;74267;50.434;7.398;2024-03-02T05:36:18;99489.97;;;5.74;83.93
84147;BME280;74267;50.434;7.398;2024-03-02T05:38:44;99491.56;;;5.75;84.79
84147;BME280;74267;50.434;7.398;2024-03-02T05:41:09;99492.78;;;5.79;84.66
84147;BME280;74267;50.434;7.398;2024-03-02T05:43:34;99500.44;;;5.74;83.81
84147;BME280;74267;50.434;7.398;2024-03-02T05:46:00;99500.03;;;5.77;84.91
84147;BME280;74267;50.434;7.398;2024-03-02T05:48:25;99497.63;;;5.82;84.18
84147;BME280;74267;50.434;7.398;2024-03-02T05:50:50;99497.84;;;5.87;84.09
84147;BME280;74267;50.434;7.398;2024-03-02T05:53:16;99503.28;;;5.86;83.94
84147;BME280;74267;50.434;7.398;2024-03-02T05:55:41;99498.81;;;5.80;83.42
84147;BME280;74267;50.434;7.398;2024-03-02T05:58:06;99500.03;;;5.77;83.26
84147;BME280;74267;50.434;7.398;2024-03-02T06:00:32;99503.22;;;5.79;83.84
84147;BME280;74267;50.434;7.398;2024-03-02T06:02:57;99504.69;;;5.88;83.55
84147;BME280;74267;50.434;7.398;2024-03-02T06:05:23;99502.28;;;5.93;83.03
84147;BME280;74267;50.434;7.398;2024-03-02T06:07:49;99516.72;;;5.89;84.00
84147;BME280;74267;50.434;7.398;2024-03-02T06:10:15;99518.13;;;5.85;84.07
84147;BME280;74267;50.434;7.398;2024-03-02T06:12:40;99520.16;;;5.90;84.26
84147;BME280;74267;50.434;7.398;2024-03-02T06:15:06;99521.56;;;5.86;83.92
84147;BME280;74267;50.434;7.398;2024-03-02T06:17:34;99518.94;;;5.86;83.68
84147;BME280;74267;50.434;7.398;2024-03-02T06:20:00;99520.91;;;5.77;85.14
84147;BME280;74267;50.434;7.398;2024-03-02T06:22:25;99516.72;;;5.83;85.03
84147;BME280;74267;50.434;7.398;2024-03-02T06:24:51;99524.31;;;5.78;84.30
84147;BME280;74267;50.434;7.398;2024-03-02T06:27:16;99543.03;;;5.81;85.02
84147;BME280;74267;50.434;7.398;2024-03-02T06:29:41;99525.75;;;5.80;85.28
84147;BME280;74267;50.434;7.398;2024-03-02T06:32:07;99525.97;;;5.85;84.57
84147;BME280;74267;50.434;7.398;2024-03-02T06:34:32;99544.06;;;5.93;83.79
84147;BME280;74267;50.434;7.398;2024-03-02T06:36:58;99543.84;;;5.88;83.99
84147;BME280;74267;50.434;7.398;2024-03-02T06:39:23;99547.88;;;5.97;84.84
84147;BME280;74267;50.434;7.398;2024-03-02T06:41:48;99549.47;;;5.98;84.23
84147;BME280;74267;50.434;7.398;2024-03-02T06:44:14;99556.72;;;6.03;84.08
84147;BME280;74267;50.434;7.398;2024-03-02T06:46:39;99560.53;;;6.13;84.22
84147;BME280;74267;50.434;7.398;2024-03-02T06:49:04;99560.13;;;6.10;85.02
84147;BME280;74267;50.434;7.398;2024-03-02T06:51:30;99551.28;;;6.11;84.24
84147;BME280;74267;50.434;7.398;2024-03-02T06:53:55;99558.34;;;6.10;84.21
84147;BME280;74267;50.434;7.398;2024-03-02T06:56:21;99555.72;;;6.23;84.48
84147;BME280;74267;50.434;7.398;2024-03-02T06:58:46;99555.53;;;6.25;83.83
84147;BME280;74267;50.434;7.398;2024-03-02T07:01:12;99555.09;;;6.34;84.36
84147;BME280;74267;50.434;7.398;2024-03-02T07:03:37;99560.69;;;6.38;83.88
84147;BME280;74267;50.434;7.398;2024-03-02T07:06:04;99569.97;;;6.40;84.60
84147;BME280;74267;50.434;7.398;2024-03-02T07:08:30;99567.16;;;6.35;85.19
84147;BME280;74267;50.434;7.398;2024-03-02T07:10:55;99566.56;;;6.33;84.87
84147;BME280;74267;50.434;7.398;2024-03-02T07:13:21;99554.28;;;6.34;84.57
84147;BME280;74267;50.434;7.398;2024-03-02T07:15:46;99554.28;;;6.34;84.87
84147;BME280;74267;50.434;7.398;2024-03-02T07:18:30;99555.06;;;6.41;84.58
84147;BME280;74267;50.434;7.398;2024-03-02T07:20:56;99548.47;;;6.45;83.77
84147;BME280;74267;50.434;7.398;2024-03-02T07:23:26;99549.81;;;6.54;82.91
84147;BME280;74267;50.434;7.398;2024-03-02T07:25:55;99548.22;;;6.53;82.38
84147;BME280;74267;50.434;7.398;2024-03-02T07:28:22;99550.63;;;6.54;82.38
84147;BME280;74267;50.434;7.398;2024-03-02T07:30:57;99557.88;;;6.59;81.81
84147;BME280;74267;50.434;7.398;2024-03-02T07:33:22;99555.84;;;6.67;81.64
84147;BME280;74267;50.434;7.398;2024-03-02T07:35:48;99558.63;;;6.72;81.20
84147;BME280;74267;50.434;7.398;2024-03-02T07:38:13;99553.81;;;6.69;81.21
84147;BME280;74267;50.434;7.398;2024-03-02T07:40:38;99568.66;;;6.88;81.80
84147;BME280;74267;50.434;7.398;2024-03-02T07:43:04;99575.44;;;7.02;79.51
84147;BME280;74267;50.434;7.398;2024-03-02T07:45:30;99578.06;;;7.02;79.97
84147;BME280;74267;50.434;7.398;2024-03-02T07:47:55;99575.22;;;7.10;79.59
84147;BME280;74267;50.434;7.398;2024-03-02T07:50:20;99574.56;;;7.21;80.04
84147;BME280;74267;50.434;7.398;2024-03-02T07:52:45;99584.94;;;7.41;78.52
84147;BME280;74267;50.434;7.398;2024-03-02T07:55:11;99584.66;;;7.55;77.53
84147;BME280;74267;50.434;7.398;2024-03-02T07:57:36;99580.16;;;7.69;76.48
84147;BME280;74267;50.434;7.398;2024-03-02T08:00:02;99581.31;;;7.80;76.24
84147;BME280;74267;50.434;7.398;2024-03-02T08:02:27;99587.47;;;7.92;75.40
84147;BME280;74267;50.434;7.398;2024-03-02T08:04:53;99591.81;;;8.04;76.02
84147;BME280;74267;50.434;7.398;2024-03-02T08:07:18;99587.09;;;8.13;74.31
84147;BME280;74267;50.434;7.398;2024-03-02T08:09:43;99587.78;;;8.33;74.72
84147;BME280;74267;50.434;7.398;2024-03-02T08:12:09;99580.22;;;8.43;73.66
84147;BME280;74267;50.434;7.398;2024-03-02T08:14:34;99580.41;;;8.48;73.77
84147;BME280;74267;50.434;7.398;2024-03-02T08:17:00;99576.63;;;8.62;73.79
84147;BME280;74267;50.434;7.398;2024-03-02T08:19:26;99581.13;;;8.73;73.05
84147;BME280;74267;50.434;7.398;2024-03-02T08:21:53;99585.09;;;8.82;71.78
84147;BME280;74267;50.434;7.398;2024-03-02T08:24:18;99570.16;;;8.82;71.78
84147;BME280;74267;50.434;7.398;2024-03-02T08:26:43;99570.22;;;8.94;71.83
84147;BME280;74267;50.434;7.398;2024-03-02T08:29:09;99567.69;;;9.05;71.36
84147;BME280;74267;50.434;7.398;2024-03-02T08:31:34;99570.66;;;9.09;71.06
84147;BME280;74267;50.434;7.398;2024-03-02T08:33:59;99563.81;;;9.08;70.63
84147;BME280;74267;50.434;7.398;2024-03-02T08:36:25;99570.22;;;9.12;70.63
84147;BME280;74267;50.434;7.398;2024-03-02T08:38:51;99568.97;;;9.14;70.73
84147;BME280;74267;50.434;7.398;2024-03-02T08:41:16;99566.72;;;9.18;70.15
84147;BME280;74267;50.434;7.398;2024-03-02T08:43:42;99574.28;;;9.26;70.07
84147;BME280;74267;50.434;7.398;2024-03-02T08:46:08;99576.03;;;9.32;70.21
84147;BME280;74267;50.434;7.398;2024-03-02T08:48:34;99574.56;;;9.36;70.06
84147;BME280;74267;50.434;7.398;2024-03-02T08:50:59;99579.50;;;9.44;69.47
84147;BME280;74267;50.434;7.398;2024-03-02T08:53:24;99583.06;;;9.49;69.06
84147;BME280;74267;50.434;7.398;2024-03-02T08:55:50;99590.41;;;9.59;69.12
84147;BME280;74267;50.434;7.398;2024-03-02T08:58:15;99583.25;;;9.66;68.28
84147;BME280;74267;50.434;7.398;2024-03-02T09:00:41;99583.97;;;9.73;68.17
84147;BME280;74267;50.434;7.398;2024-03-02T09:03:07;99588.69;;;9.82;67.65
84147;BME280;74267;50.434;7.398;2024-03-02T09:05:32;99585.38;;;9.87;67.23
84147;BME280;74267;50.434;7.398;2024-03-02T09:07:58;99576.81;;;9.91;66.24
84147;BME280;74267;50.434;7.398;2024-03-02T09:10:23;99590.09;;;9.96;67.34
84147;BME280;74267;50.434;7.398;2024-03-02T09:12:48;99582.34;;;10.02;67.17
84147;BME280;74267;50.434;7.398;2024-03-02T09:15:14;99579.75;;;10.13;67.25
84147;BME280;74267;50.434;7.398;2024-03-02T09:17:39;99580.00;;;10.23;66.29
84147;BME280;74267;50.434;7.398;2024-03-02T09:20:05;99579.44;;;10.33;66.24
84147;BME280;74267;50.434;7.398;2024-03-02T09:22:31;99573.59;;;10.42;65.38
84147;BME280;74267;50.434;7.398;2024-03-02T09:24:57;99568.56;;;10.52;65.88
84147;BME280;74267;50.434;7.398;2024-03-02T09:27:23;99562.84;;;10.55;65.29
84147;BME280;74267;50.434;7.398;2024-03-02T09:29:48;99555.63;;;10.51;65.28
84147;BME280;74267;50.434;7.398;2024-03-02T09:32:14;99554.38;;;10.53;65.67
84147;BME280;74267;50.434;7.398;2024-03-02T09:34:40;99559.41;;;10.66;65.41
84147;BME280;74267;50.434;7.398;2024-03-02T09:37:06;99554.59;;;10.75;65.79
84147;BME280;74267;50.434;7.398;2024-03-02T09:39:31;99562.09;;;10.94;64.13
84147;BME280;74267;50.434;7.398;2024-03-02T09:41:58;99555.47;;;11.03;64.42
84147;BME280;74267;50.434;7.398;2024-03-02T09:44:23;99535.16;;;11.04;64.27
84147;BME280;74267;50.434;7.398;2024-03-02T09:46:50;99546.03;;;11.07;64.75
84147;BME280;74267;50.434;7.398;2024-03-02T09:49:16;99545.13;;;11.13;64.45
84147;BME280;74267;50.434;7.398;2024-03-02T09:51:47;99546.78;;;11.19;64.63
84147;BME280;74267;50.434;7.398;2024-03-02T09:54:12;99544.50;;;11.23;63.78
84147;BME280;74267;50.434;7.398;2024-03-02T09:56:38;99547.81;;;11.30;64.42
84147;BME280;74267;50.434;7.398;2024-03-02T09:59:04;99550.38;;;11.41;63.42
84147;BME280;74267;50.434;7.398;2024-03-02T10:01:30;99550.50;;;11.46;62.30
84147;BME280;74267;50.434;7.398;2024-03-02T10:03:59;99552.59;;;11.61;63.69
84147;BME280;74267;50.434;7.398;2024-03-02T10:06:26;99540.91;;;11.68;62.61
84147;BME280;74267;50.434;7.398;2024-03-02T10:08:52;99540.41;;;11.71;62.02
84147;BME280;74267;50.434;7.398;2024-03-02T10:11:29;99531.31;;;11.79;61.88
84147;BME280;74267;50.434;7.398;2024-03-02T10:14:05;99534.78;;;11.79;62.70
84147;BME280;74267;50.434;7.398;2024-03-02T10:16:34;99528.16;;;11.93;61.29
84147;BME280;74267;50.434;7.398;2024-03-02T10:19:15;99532.69;;;12.14;61.30
84147;BME280;74267;50.434;7.398;2024-03-02T10:21:42;99529.00;;;12.15;61.53
84147;BME280;74267;50.434;7.398;2024-03-02T10:24:08;99529.91;;;12.21;60.96
84147;BME280;74267;50.434;7.398;2024-03-02T10:26:33;99523.41;;;12.28;60.28
84147;BME280;74267;50.434;7.398;2024-03-02T10:28:59;99527.47;;;12.36;60.56
84147;BME280;74267;50.434;7.398;2024-03-02T10:31:25;99518.75;;;12.35;59.91
84147;BME280;74267;50.434;7.398;2024-03-02T10:33:54;99530.50;;;12.45;61.41
84147;BME280;74267;50.434;7.398;2024-03-02T10:36:20;99522.34;;;12.46;60.21
84147;BME280;74267;50.434;7.398;2024-03-02T10:38:46;99524.66;;;12.43;60.86
84147;BME280;74267;50.434;7.398;2024-03-02T10:41:16;99523.06;;;12.42;60.88
84147;BME280;74267;50.434;7.398;2024-03-02T10:43:42;99514.56;;;12.56;61.81
84147;BME280;74267;50.434;7.398;2024-03-02T10:46:08;99524.00;;;12.52;60.82
84147;BME280;74267;50.434;7.398;2024-03-02T10:48:35;99520.59;;;12.35;59.36
84147;BME280;74267;50.434;7.398;2024-03-02T10:51:01;99519.06;;;12.22;60.40
84147;BME280;74267;50.434;7.398;2024-03-02T10:53:27;99517.97;;;12.18;60.59
84147;BME280;74267;50.434;7.398;2024-03-02T10:55:58;99525.50;;;12.26;61.57
84147;BME280;74267;50.434;7.398;2024-03-02T10:58:32;99518.25;;;12.38;61.38
84147;BME280;74267;50.434;7.398;2024-03-02T11:01:02;99520.50;;;12.47;60.49
84147;BME280;74267;50.434;7.398;2024-03-02T11:03:29;99511.91;;;12.56;59.46
84147;BME280;74267;50.434;7.398;2024-03-02T11:05:59;99512.16;;;12.55;60.39
84147;BME280;74267;50.434;7.398;2024-03-02T11:08:26;99510.38;;;12.60;60.41
84147;BME280;74267;50.434;7.398;2024-03-02T11:11:05;99508.81;;;12.81;59.95
84147;BME280;74267;50.434;7.398;2024-03-02T11:13:33;99507.25;;;13.01;59.06
84147;BME280;74267;50.434;7.398;2024-03-02T11:16:04;99511.38;;;13.19;58.68
84147;BME280;74267;50.434;7.398;2024-03-02T11:18:31;99513.03;;;13.25;59.06
84147;BME280;74267;50.434;7.398;2024-03-02T11:20:58;99514.63;;;13.26;57.69
84147;BME280;74267;50.434;7.398;2024-03-02T11:23:33;99508.47;;;13.15;58.81
84147;BME280;74267;50.434;7.398;2024-03-02T11:26:19;99506.06;;;13.14;57.98
84147;BME280;74267;50.434;7.398;2024-03-02T11:28:45;99501.25;;;13.11;59.19
84147;BME280;74267;50.434;7.398;2024-03-02T11:31:11;99489.16;;;13.15;58.03
84147;BME280;74267;50.434;7.398;2024-03-02T11:33:36;99496.06;;;13.42;58.17
84147;BME280;74267;50.434;7.398;2024-03-02T11:36:02;99495.31;;;13.47;57.45
84147;BME280;74267;50.434;7.398;2024-03-02T11:38:28;99487.38;;;13.47;58.23
84147;BME280;74267;50.434;7.398;2024-03-02T11:40:53;99486.41;;;13.58;56.67
84147;BME280;74267;50.434;7.398;2024-03-02T11:43:20;99499.16;;;13.66;57.58
84147;BME280;74267;50.434;7.398;2024-03-02T11:45:46;99489.97;;;13.73;56.38
84147;BME280;74267;50.434;7.398;2024-03-02T11:48:14;99480.66;;;13.66;55.95
84147;BME280;74267;50.434;7.398;2024-03-02T11:50:42;99487.59;;;13.72;56.81
84147;BME280;74267;50.434;7.398;2024-03-02T11:53:11;99486.66;;;13.88;56.29
84147;BME280;74267;50.434;7.398;2024-03-02T11:55:38;99479.13;;;14.06;56.86
84147;BME280;74267;50.434;7.398;2024-03-02T11:58:11;99475.56;;;13.91;55.32
84147;BME280;74267;50.434;7.398;2024-03-02T12:00:37;99470.78;;;13.88;55.72
84147;BME280;74267;50.434;7.398;2024-03-02T12:03:12;99467.00;;;13.79;55.39
84147;BME280;74267;50.434;7.398;2024-03-02T12:05:39;99468.91;;;13.83;56.10
84147;BME280;74267;50.434;7.398;2024-03-02T12:08:06;99450.84;;;13.75;56.15
84147;BME280;74267;50.434;7.398;2024-03-02T12:10:33;99461.03;;;13.62;55.07
84147;BME280;74267;50.434;7.398;2024-03-02T12:12:59;99453.09;;;13.62;55.63
84147;BME280;74267;50.434;7.398;2024-03-02T12:15:27;99456.84;;;13.66;56.23
84147;BME280;74267;50.434;7.398;2024-03-02T12:17:56;99456.75;;;13.56;56.56
84147;BME280;74267;50.434;7.398;2024-03-02T12:20:23;99454.66;;;13.58;55.46
84147;BME280;74267;50.434;7.398;2024-03-02T12:22:50;99453.28;;;13.50;55.69
84147;BME280;74267;50.434;7.398;2024-03-02T12:25:18;99449.28;;;13.48;55.05
84147;BME280;74267;50.434;7.398;2024-03-02T12:27:45;99445.06;;;13.47;56.06
84147;BME280;74267;50.434;7.398;2024-03-02T12:30:11;99441.13;;;13.49;55.90
84147;BME280;74267;50.434;7.398;2024-03-02T12:32:40;99443.28;;;13.57;54.35
84147;BME280;74267;50.434;7.398;2024-03-02T12:35:05;99435.06;;;13.54;55.13
84147;BME280;74267;50.434;7.398;2024-03-02T12:37:31;99444.66;;;13.65;55.02
84147;BME280;74267;50.434;7.398;2024-03-02T12:39:56;99427.78;;;13.71;54.96
84147;BME280;74267;50.434;7.398;2024-03-02T12:42:23;99427.25;;;13.69;54.38
84147;BME280;74267;50.434;7.398;2024-03-02T12:44:51;99425.09;;;13.66;53.79
84147;BME280;74267;50.434;7.398;2024-03-02T12:47:19;99424.06;;;13.67;55.25
84147;BME280;74267;50.434;7.398;2024-03-02T12:49:45;99424.09;;;13.72;54.75
84147;BME280;74267;50.434;7.398;2024-03-02T12:52:13;99428.84;;;13.70;54.61
84147;BME280;74267;50.434;7.398;2024-03-02T12:54:38;99422.97;;;13.63;54.76
84147;BME280;74267;50.434;7.398;2024-03-02T12:57:03;99421.44;;;13.67;54.67
84147;BME280;74267;50.434;7.398;2024-03-02T12:59:29;99412.44;;;13.68;53.83
84147;BME280;74267;50.434;7.398;2024-03-02T13:01:56;99410.63;;;13.73;54.92
84147;BME280;74267;50.434;7.398;2024-03-02T13:04:27;99409.09;;;13.82;54.01